createdAt,value
2023-05-06T00:00:28.722Z,98269.44
2023-05-06T00:02:55.495Z,98268.81
2023-05-06T00:05:22.000Z,98275.75
2023-05-06T00:07:48.402Z,98278.56
2023-05-06T00:10:14.752Z,98274.47
2023-05-06T00:12:41.142Z,98267.91
2023-05-06T00:15:08.023Z,98268.09
2023-05-06T00:17:34.635Z,98272.94
2023-05-06T00:20:01.051Z,98274.19
2023-05-06T00:22:27.494Z,98278.09
2023-05-06T00:24:53.846Z,98275.56
2023-05-06T00:27:20.256Z,98275.16
2023-05-06T00:29:46.597Z,98269.19
2023-05-06T00:32:13.116Z,98272.41
2023-05-06T00:34:39.625Z,98273.06
2023-05-06T00:37:06.070Z,98265.50
2023-05-06T00:39:33.442Z,98263.56
2023-05-06T00:42:02.154Z,98257.94
2023-05-06T00:44:29.682Z,98253.16
2023-05-06T00:46:57.097Z,98257.53
2023-05-06T00:49:23.696Z,98261.41
2023-05-06T00:51:51.876Z,98253.16
2023-05-06T00:54:18.688Z,98258.50
2023-05-06T00:56:45.221Z,98250.53
2023-05-06T00:59:11.557Z,98251.34
2023-05-06T01:01:38.509Z,98242.31
2023-05-06T01:04:05.112Z,98244.53
2023-05-06T01:06:49.750Z,98241.56
2023-05-06T01:09:24.590Z,98239.50
2023-05-06T01:11:56.740Z,98245.31
2023-05-06T01:14:36.248Z,98245.63
2023-05-06T01:17:06.332Z,98245.94
2023-05-06T01:19:43.025Z,98239.84
2023-05-06T01:22:11.500Z,98237.13
2023-05-06T01:24:42.604Z,98236.19
2023-05-06T01:27:10.658Z,98226.81
2023-05-06T01:29:39.775Z,98231.28
2023-05-06T01:32:35.334Z,98226.31
2023-05-06T01:35:19.226Z,98236.91
2023-05-06T01:38:03.763Z,98238.31
2023-05-06T01:40:33.055Z,98223.03
2023-05-06T01:43:02.240Z,98219.03
2023-05-06T01:45:31.800Z,98226.91
2023-05-06T01:47:59.262Z,98230.03
2023-05-06T01:50:26.084Z,98238.09
2023-05-06T01:52:59.998Z,98237.75
2023-05-06T01:55:26.964Z,98234.03
2023-05-06T01:57:54.453Z,98225.09
2023-05-06T02:00:20.843Z,98225.47
2023-05-06T02:02:47.478Z,98233.97
2023-05-06T02:05:13.881Z,98224.81
2023-05-06T02:07:40.264Z,98227.69
2023-05-06T02:10:07.039Z,98226.75
2023-05-06T02:12:33.430Z,98237.44
2023-05-06T02:14:59.789Z,98220.38
2023-05-06T02:17:26.375Z,98234.22
2023-05-06T02:19:52.734Z,98228.75
2023-05-06T02:22:19.150Z,98226.00
2023-05-06T02:24:45.632Z,98225.97
2023-05-06T02:27:11.997Z,98225.34
2023-05-06T02:29:38.421Z,98219.03
2023-05-06T02:32:06.966Z,98216.97
2023-05-06T02:34:33.816Z,98211.75
2023-05-06T02:37:00.211Z,98210.78
2023-05-06T02:39:26.581Z,98198.19
2023-05-06T02:41:52.991Z,98200.19
2023-05-06T02:44:19.386Z,98189.34
2023-05-06T02:46:45.841Z,98193.94
2023-05-06T02:49:12.201Z,98190.19
2023-05-06T02:51:38.597Z,98179.41
2023-05-06T02:54:04.962Z,98181.13
2023-05-06T02:56:31.447Z,98188.00
2023-05-06T02:58:57.786Z,98188.22
2023-05-06T03:01:24.274Z,98184.72
2023-05-06T03:03:50.800Z,98182.25
2023-05-06T03:06:17.243Z,98185.44
2023-05-06T03:08:43.685Z,98185.56
2023-05-06T03:11:10.072Z,98176.25
2023-05-06T03:13:36.439Z,98167.13
2023-05-06T03:16:03.013Z,98162.28
2023-05-06T03:18:29.347Z,98158.66
2023-05-06T03:20:55.709Z,98164.91
2023-05-06T03:23:22.074Z,98157.56
2023-05-06T03:25:48.437Z,98157.69
2023-05-06T03:28:14.822Z,98161.09
2023-05-06T03:30:41.222Z,98164.41
2023-05-06T03:33:07.791Z,98170.66
2023-05-06T03:35:34.305Z,98174.56
2023-05-06T03:38:00.712Z,98183.38
2023-05-06T03:40:27.140Z,98184.97
2023-05-06T03:42:53.614Z,98179.75
2023-05-06T03:45:19.992Z,98181.25
2023-05-06T03:47:46.775Z,98180.84
2023-05-06T03:50:13.225Z,98185.25
2023-05-06T03:52:39.885Z,98182.53
2023-05-06T03:55:06.913Z,98174.28
2023-05-06T03:57:33.403Z,98175.53
2023-05-06T03:59:59.796Z,98169.88
2023-05-06T04:02:26.258Z,98179.72
2023-05-06T04:04:52.682Z,98182.13
2023-05-06T04:07:19.062Z,98178.31
2023-05-06T04:09:45.452Z,98179.97
2023-05-06T04:12:11.801Z,98188.53
2023-05-06T04:14:39.605Z,98182.31
2023-05-06T04:17:06.134Z,98191.78
2023-05-06T04:19:33.566Z,98191.25
2023-05-06T04:21:59.913Z,98192.31
2023-05-06T04:24:28.532Z,98183.19
2023-05-06T04:26:55.714Z,98189.19
2023-05-06T04:29:22.094Z,98186.00
2023-05-06T04:31:48.598Z,98186.44
2023-05-06T04:34:16.960Z,98186.44
2023-05-06T04:36:43.513Z,98183.81
2023-05-06T04:39:10.502Z,98189.31
2023-05-06T04:41:37.689Z,98190.47
2023-05-06T04:44:04.747Z,98193.81
2023-05-06T04:46:31.115Z,98195.69
2023-05-06T04:48:58.263Z,98195.69
2023-05-06T04:51:24.720Z,98199.41
2023-05-06T04:53:52.544Z,98199.78
2023-05-06T04:56:19.024Z,98203.47
2023-05-06T04:58:45.365Z,98209.31
2023-05-06T05:01:11.950Z,98206.44
2023-05-06T05:03:38.350Z,98210.72
2023-05-06T05:06:04.932Z,98207.88
2023-05-06T05:08:31.330Z,98212.66
2023-05-06T05:10:57.710Z,98207.59
2023-05-06T05:13:24.058Z,98208.38
2023-05-06T05:15:54.704Z,98215.69
2023-05-06T05:18:21.107Z,98224.84
2023-05-06T05:20:47.533Z,98222.00
2023-05-06T05:23:13.885Z,98218.06
2023-05-06T05:25:40.315Z,98218.78
2023-05-06T05:28:06.702Z,98218.78
2023-05-06T05:30:33.235Z,98218.09
2023-05-06T05:32:59.748Z,98219.63
2023-05-06T05:35:26.193Z,98216.41
2023-05-06T05:37:52.551Z,98210.97
2023-05-06T05:40:19.007Z,98216.47
2023-05-06T05:42:45.427Z,98208.09
2023-05-06T05:45:11.846Z,98218.69
2023-05-06T05:47:38.239Z,98218.38
2023-05-06T05:50:05.270Z,98224.22
2023-05-06T05:52:31.681Z,98229.34
2023-05-06T05:54:58.022Z,98223.53
2023-05-06T05:57:24.403Z,98234.16
2023-05-06T05:59:50.851Z,98235.25
2023-05-06T06:02:17.299Z,98235.19
2023-05-06T06:04:44.216Z,98235.66
2023-05-06T06:07:11.044Z,98234.63
2023-05-06T06:09:37.491Z,98228.38
2023-05-06T06:12:03.987Z,98234.59
2023-05-06T06:14:30.606Z,98234.22
2023-05-06T06:16:56.978Z,98240.44
2023-05-06T06:19:23.400Z,98237.13
2023-05-06T06:21:49.809Z,98245.13
2023-05-06T06:24:16.350Z,98246.28
2023-05-06T06:26:42.716Z,98244.06
2023-05-06T06:29:09.127Z,98250.25
2023-05-06T06:31:35.937Z,98254.97
2023-05-06T06:34:06.480Z,98240.34
2023-05-06T06:36:33.138Z,98254.66
2023-05-06T06:38:59.530Z,98249.16
2023-05-06T06:41:28.013Z,98248.47
2023-05-06T06:43:54.424Z,98260.59
2023-05-06T06:46:20.878Z,98258.06
2023-05-06T06:48:48.050Z,98261.38
2023-05-06T06:51:14.418Z,98261.44
2023-05-06T06:53:40.864Z,98258.88
2023-05-06T06:56:12.074Z,98261.84
2023-05-06T06:58:38.668Z,98263.34
2023-05-06T07:01:05.539Z,98264.78
2023-05-06T07:03:31.953Z,98261.13
2023-05-06T07:05:58.350Z,98263.00
2023-05-06T07:08:24.900Z,98263.69
2023-05-06T07:10:51.302Z,98271.38
2023-05-06T07:13:17.832Z,98261.47
2023-05-06T07:15:44.329Z,98265.84
2023-05-06T07:18:10.979Z,98263.59
2023-05-06T07:20:37.472Z,98271.25
2023-05-06T07:23:03.835Z,98270.19
2023-05-06T07:25:31.333Z,98281.91
2023-05-06T07:27:57.806Z,98274.53
2023-05-06T07:30:24.185Z,98279.59
2023-05-06T07:32:50.764Z,98284.38
2023-05-06T07:35:17.253Z,98281.41
2023-05-06T07:37:46.257Z,98285.44
2023-05-06T07:40:12.811Z,98278.44
2023-05-06T07:42:42.261Z,98278.34
2023-05-06T07:45:10.030Z,98279.09
2023-05-06T07:47:36.661Z,98296.25
2023-05-06T07:50:04.958Z,98288.88
2023-05-06T07:52:31.365Z,98285.94
2023-05-06T07:54:57.788Z,98292.88
2023-05-06T07:57:24.197Z,98291.75
2023-05-06T07:59:51.922Z,98300.22
2023-05-06T08:02:18.766Z,98304.59
2023-05-06T08:04:46.128Z,98296.56
2023-05-06T08:07:12.676Z,98307.53
2023-05-06T08:09:39.037Z,98309.63
2023-05-06T08:12:05.786Z,98308.13
2023-05-06T08:14:32.241Z,98313.94
2023-05-06T08:16:58.621Z,98315.31
2023-05-06T08:19:25.027Z,98315.22
2023-05-06T08:21:51.916Z,98317.66
2023-05-06T08:24:18.548Z,98319.63
2023-05-06T08:26:44.950Z,98322.66
2023-05-06T08:29:11.339Z,98330.78
2023-05-06T08:31:37.791Z,98332.00
2023-05-06T08:34:04.199Z,98324.34
2023-05-06T08:36:30.962Z,98333.19
2023-05-06T08:38:57.448Z,98331.34
2023-05-06T08:41:26.276Z,98342.00
2023-05-06T08:43:54.786Z,98341.63
2023-05-06T08:46:21.536Z,98346.66
2023-05-06T08:48:48.095Z,98346.53
2023-05-06T08:51:17.796Z,98343.91
2023-05-06T08:53:48.709Z,98351.16
2023-05-06T08:56:16.272Z,98357.69
2023-05-06T08:58:45.557Z,98361.72
2023-05-06T09:01:12.251Z,98355.19
2023-05-06T09:03:38.690Z,98358.47
2023-05-06T09:06:05.271Z,98364.59
2023-05-06T09:08:31.623Z,98362.44
2023-05-06T09:10:58.009Z,98363.53
2023-05-06T09:13:24.609Z,98368.28
2023-05-06T09:15:54.341Z,98370.53
2023-05-06T09:18:20.912Z,98373.19
2023-05-06T09:20:48.655Z,98373.84
2023-05-06T09:23:18.457Z,98377.38
2023-05-06T09:25:46.418Z,98371.94
2023-05-06T09:28:13.747Z,98374.91
2023-05-06T09:30:45.046Z,98379.91
2023-05-06T09:33:12.158Z,98379.91
2023-05-06T09:35:42.999Z,98390.13
2023-05-06T09:38:10.624Z,98383.22
2023-05-06T09:40:38.105Z,98378.94
2023-05-06T09:43:05.132Z,98378.53
2023-05-06T09:45:36.383Z,98389.09
2023-05-06T09:48:03.002Z,98390.44
2023-05-06T09:50:29.508Z,98391.63
2023-05-06T09:52:56.633Z,98397.47
2023-05-06T09:55:26.561Z,98396.00
2023-05-06T09:57:53.455Z,98396.81
2023-05-06T10:00:26.800Z,98397.19
2023-05-06T10:02:54.604Z,98398.69
2023-05-06T10:05:22.797Z,98403.47
2023-05-06T10:07:52.045Z,98396.53
2023-05-06T10:10:19.048Z,98396.28
2023-05-06T10:12:46.068Z,98403.13
2023-05-06T10:15:12.778Z,98406.03
2023-05-06T10:17:41.780Z,98406.34
2023-05-06T10:20:09.555Z,98412.63
2023-05-06T10:22:53.524Z,98401.41
2023-05-06T10:25:28.926Z,98400.09
2023-05-06T10:27:55.384Z,98406.94
2023-05-06T10:30:23.923Z,98407.25
2023-05-06T10:32:52.408Z,98408.63
2023-05-06T10:35:24.924Z,98402.75
2023-05-06T10:37:52.746Z,98415.53
2023-05-06T10:40:19.478Z,98416.94
2023-05-06T10:42:45.987Z,98411.50
2023-05-06T10:45:15.283Z,98411.53
2023-05-06T10:47:56.842Z,98413.59
2023-05-06T10:50:24.676Z,98413.53
2023-05-06T10:52:55.345Z,98409.16
2023-05-06T10:55:28.971Z,98409.16
2023-05-06T10:57:57.292Z,98409.97
2023-05-06T11:00:24.132Z,98412.50
2023-05-06T11:02:55.286Z,98420.44
2023-05-06T11:05:22.874Z,98414.19
2023-05-06T11:07:50.097Z,98406.63
2023-05-06T11:10:30.822Z,98407.75
2023-05-06T11:12:57.358Z,98411.78
2023-05-06T11:15:25.241Z,98412.28
2023-05-06T11:17:53.220Z,98418.53
2023-05-06T11:20:24.259Z,98421.44
2023-05-06T11:22:51.208Z,98426.16
2023-05-06T11:25:40.429Z,98424.69
2023-05-06T11:28:11.618Z,98434.03
2023-05-06T11:30:41.645Z,98436.41
2023-05-06T11:33:09.259Z,98439.81
2023-05-06T11:35:39.518Z,98443.50
2023-05-06T11:38:06.154Z,98445.31
2023-05-06T11:40:32.723Z,98444.31
2023-05-06T11:43:15.844Z,98446.16
2023-05-06T11:45:46.965Z,98448.41
2023-05-06T11:48:17.500Z,98459.41
2023-05-06T11:50:46.046Z,98466.34
2023-05-06T11:53:13.312Z,98465.53
2023-05-06T11:55:39.955Z,98471.34
2023-05-06T11:58:06.371Z,98469.97
2023-05-06T12:00:32.782Z,98472.53
2023-05-06T12:02:59.157Z,98472.41
2023-05-06T12:05:28.659Z,98475.59
2023-05-06T12:07:55.564Z,98474.56
2023-05-06T12:10:22.076Z,98478.00
2023-05-06T12:12:48.545Z,98487.66
2023-05-06T12:15:15.416Z,98481.81
2023-05-06T12:17:41.919Z,98482.56
2023-05-06T12:20:10.946Z,98475.09
2023-05-06T12:22:39.017Z,98481.84
2023-05-06T12:25:15.592Z,98482.75
2023-05-06T12:27:41.953Z,98490.59
2023-05-06T12:30:09.365Z,98479.94
2023-05-06T12:32:36.121Z,98476.84
2023-05-06T12:35:07.292Z,98472.47
2023-05-06T12:37:33.781Z,98474.47
2023-05-06T12:40:00.296Z,98474.50
2023-05-06T12:42:26.831Z,98479.22
2023-05-06T12:44:53.385Z,98472.97
2023-05-06T12:47:22.257Z,98477.28
2023-05-06T12:49:50.090Z,98477.59
2023-05-06T12:52:17.792Z,98485.97
2023-05-06T12:54:44.268Z,98476.09
2023-05-06T12:57:10.808Z,98487.03
2023-05-06T12:59:37.473Z,98487.50
2023-05-06T13:02:05.388Z,98487.06
2023-05-06T13:04:32.122Z,98484.13
2023-05-06T13:06:58.700Z,98487.66
2023-05-06T13:09:25.606Z,98501.59
2023-05-06T13:11:52.069Z,98501.31
2023-05-06T13:14:18.547Z,98487.16
2023-05-06T13:16:45.707Z,98502.00
2023-05-06T13:19:21.110Z,98503.09
2023-05-06T13:21:51.512Z,98515.19
2023-05-06T13:24:18.071Z,98505.25
2023-05-06T13:26:44.545Z,98500.38
2023-05-06T13:29:10.940Z,98508.03
2023-05-06T13:31:37.380Z,98502.44
2023-05-06T13:34:04.140Z,98505.53
2023-05-06T13:36:31.188Z,98502.66
2023-05-06T13:38:57.562Z,98500.66
2023-05-06T13:41:25.328Z,98505.81
2023-05-06T13:43:52.250Z,98493.22
2023-05-06T13:46:18.669Z,98500.53
2023-05-06T13:48:45.133Z,98498.97
2023-05-06T13:51:11.616Z,98505.31
2023-05-06T13:53:39.391Z,98510.03
2023-05-06T13:56:06.020Z,98502.97
2023-05-06T13:58:32.490Z,98502.34
2023-05-06T14:00:58.872Z,98513.78
2023-05-06T14:03:25.327Z,98502.38
2023-05-06T14:05:51.817Z,98499.78
2023-05-06T14:08:18.272Z,98501.25
2023-05-06T14:10:44.759Z,98501.31
2023-05-06T14:13:11.729Z,98503.78
2023-05-06T14:15:38.150Z,98502.22
2023-05-06T14:18:04.718Z,98500.72
2023-05-06T14:20:31.338Z,98499.88
2023-05-06T14:22:57.730Z,98503.94
2023-05-06T14:25:27.508Z,98511.13
2023-05-06T14:27:54.929Z,98507.78
2023-05-06T14:30:21.873Z,98503.06
2023-05-06T14:32:48.352Z,98503.72
2023-05-06T14:35:14.928Z,98512.91
2023-05-06T14:37:41.303Z,98502.25
2023-05-06T14:40:08.087Z,98498.06
2023-05-06T14:42:35.754Z,98499.28
2023-05-06T14:45:02.593Z,98504.44
2023-05-06T14:47:29.024Z,98494.44
2023-05-06T14:49:55.398Z,98507.78
2023-05-06T14:52:21.949Z,98506.47
2023-05-06T14:54:48.530Z,98504.28
2023-05-06T14:57:14.935Z,98508.13
2023-05-06T14:59:41.361Z,98507.78
2023-05-06T15:02:10.132Z,98518.88
2023-05-06T15:04:36.983Z,98517.09
2023-05-06T15:07:03.982Z,98513.41
2023-05-06T15:09:30.925Z,98509.72
2023-05-06T15:11:57.609Z,98512.47
2023-05-06T15:14:24.065Z,98520.59
2023-05-06T15:16:55.056Z,98517.69
2023-05-06T15:19:21.815Z,98519.41
2023-05-06T15:21:48.510Z,98524.06
2023-05-06T15:24:14.875Z,98520.00
2023-05-06T15:26:41.299Z,98526.63
2023-05-06T15:29:07.658Z,98526.06
2023-05-06T15:31:38.952Z,98530.72
2023-05-06T15:34:06.429Z,98529.69
2023-05-06T15:36:33.156Z,98522.28
2023-05-06T15:39:00.857Z,98523.97
2023-05-06T15:41:29.108Z,98526.75
2023-05-06T15:43:59.662Z,98528.94
2023-05-06T15:46:27.440Z,98524.53
2023-05-06T15:49:09.095Z,98524.19
2023-05-06T15:51:40.333Z,98524.03
2023-05-06T15:54:06.779Z,98526.69
2023-05-06T15:56:39.389Z,98526.72
2023-05-06T15:59:08.402Z,98527.75
2023-05-06T16:02:04.731Z,98526.00
2023-05-06T16:04:21.490Z,98536.88
2023-05-06T16:06:48.564Z,98534.66
2023-05-06T16:09:15.358Z,98535.31
2023-05-06T16:11:41.795Z,98536.69
2023-05-06T16:14:08.196Z,98530.81
2023-05-06T16:16:34.837Z,98535.81
2023-05-06T16:19:01.380Z,98543.63
2023-05-06T16:21:28.613Z,98540.75
2023-05-06T16:23:55.285Z,98537.69
2023-05-06T16:26:22.128Z,98545.09
2023-05-06T16:28:48.619Z,98544.31
2023-05-06T16:31:15.138Z,98551.19
2023-05-06T16:33:41.748Z,98543.19
2023-05-06T16:36:08.465Z,98544.50
2023-05-06T16:38:34.956Z,98537.78
2023-05-06T16:41:01.405Z,98537.84
2023-05-06T16:43:27.977Z,98538.78
2023-05-06T16:45:54.370Z,98543.09
2023-05-06T16:48:21.065Z,98552.44
2023-05-06T16:50:47.614Z,98542.47
2023-05-06T16:53:14.652Z,98534.81
2023-05-06T16:55:46.615Z,98537.03
2023-05-06T16:58:13.045Z,98530.16
2023-05-06T17:00:39.655Z,98533.22
2023-05-06T17:03:06.132Z,98529.16
2023-05-06T17:05:32.581Z,98528.31
2023-05-06T17:07:59.278Z,98532.59
2023-05-06T17:10:29.457Z,98529.78
2023-05-06T17:12:57.362Z,98526.69
2023-05-06T17:15:24.446Z,98534.59
2023-05-06T17:17:51.633Z,98536.56
2023-05-06T17:20:19.904Z,98541.16
2023-05-06T17:22:46.398Z,98539.84
2023-05-06T17:25:13.454Z,98542.06
2023-05-06T17:27:39.864Z,98541.38
2023-05-06T17:30:07.041Z,98542.34
2023-05-06T17:32:33.503Z,98541.97
2023-05-06T17:35:00.015Z,98537.44
2023-05-06T17:37:27.095Z,98547.81
2023-05-06T17:39:54.501Z,98549.59
2023-05-06T17:42:21.004Z,98558.97
2023-05-06T17:44:47.457Z,98558.16
2023-05-06T17:47:13.893Z,98549.84
2023-05-06T17:49:40.503Z,98558.16
2023-05-06T17:52:06.920Z,98567.19
2023-05-06T17:54:34.705Z,98568.75
2023-05-06T17:57:03.732Z,98572.41
2023-05-06T17:59:30.450Z,98571.69
2023-05-06T18:01:56.909Z,98565.59
2023-05-06T18:04:23.508Z,98564.25
2023-05-06T18:06:49.891Z,98582.34
2023-05-06T18:09:16.236Z,98582.09
2023-05-06T18:11:42.612Z,98580.41
2023-05-06T18:14:09.091Z,98589.72
2023-05-06T18:16:35.744Z,98586.31
2023-05-06T18:19:04.561Z,98594.44
2023-05-06T18:21:35.118Z,98598.06
2023-05-06T18:24:14.796Z,98586.47
2023-05-06T18:26:44.654Z,98594.66
2023-05-06T18:29:12.488Z,98594.13
2023-05-06T18:31:38.989Z,98601.00
2023-05-06T18:34:05.452Z,98599.19
2023-05-06T18:36:32.149Z,98600.38
2023-05-06T18:38:58.565Z,98601.91
2023-05-06T18:41:25.076Z,98607.66
2023-05-06T18:43:51.476Z,98616.84
2023-05-06T18:46:17.961Z,98616.34
2023-05-06T18:48:44.456Z,98616.41
2023-05-06T18:51:12.626Z,98614.91
2023-05-06T18:53:39.071Z,98612.63
2023-05-06T18:56:06.411Z,98613.56
2023-05-06T18:58:34.897Z,98615.22
2023-05-06T19:01:01.407Z,98617.13
2023-05-06T19:03:28.273Z,98615.59
2023-05-06T19:05:54.653Z,98619.88
2023-05-06T19:08:21.010Z,98618.66
2023-05-06T19:10:47.564Z,98622.72
2023-05-06T19:13:13.948Z,98629.75
2023-05-06T19:15:40.399Z,98626.94
2023-05-06T19:18:07.114Z,98628.81
2023-05-06T19:20:33.982Z,98634.28
2023-05-06T19:23:03.192Z,98633.44
2023-05-06T19:25:29.576Z,98629.38
2023-05-06T19:27:56.015Z,98635.72
2023-05-06T19:30:22.453Z,98629.91
2023-05-06T19:32:48.888Z,98635.63
2023-05-06T19:35:16.693Z,98642.47
2023-05-06T19:37:43.048Z,98639.56
2023-05-06T19:40:10.079Z,98635.84
2023-05-06T19:42:36.500Z,98646.53
2023-05-06T19:45:09.353Z,98651.59
2023-05-06T19:47:36.075Z,98653.25
2023-05-06T19:50:02.506Z,98650.81
2023-05-06T19:52:31.115Z,98655.94
2023-05-06T19:54:58.742Z,98647.56
2023-05-06T19:57:26.932Z,98652.19
2023-05-06T19:59:54.279Z,98657.19
2023-05-06T20:02:20.922Z,98656.09
2023-05-06T20:04:47.319Z,98653.78
2023-05-06T20:07:14.107Z,98652.31
2023-05-06T20:09:40.583Z,98645.94
2023-05-06T20:12:07.101Z,98642.47
2023-05-06T20:14:33.509Z,98650.44
2023-05-06T20:17:02.450Z,98643.06
2023-05-06T20:19:31.799Z,98634.50
2023-05-06T20:21:58.465Z,98639.97
2023-05-06T20:24:25.503Z,98639.22
2023-05-06T20:26:51.905Z,98643.75
2023-05-06T20:29:18.501Z,98640.94
2023-05-06T20:31:48.282Z,98654.34
2023-05-06T20:34:15.145Z,98643.34
2023-05-06T20:36:42.909Z,98647.38
2023-05-06T20:39:12.253Z,98651.50
2023-05-06T20:41:38.815Z,98649.06
2023-05-06T20:44:05.267Z,98649.28
2023-05-06T20:46:32.922Z,98641.78
2023-05-06T20:49:00.216Z,98645.00
2023-05-06T20:51:27.815Z,98645.03
2023-05-06T20:53:58.936Z,98648.91
2023-05-06T20:56:27.197Z,98646.78
2023-05-06T20:58:55.078Z,98643.09
2023-05-06T21:01:23.504Z,98649.75
2023-05-06T21:03:50.386Z,98650.31
2023-05-06T21:06:17.673Z,98647.81
2023-05-06T21:08:46.181Z,98649.09
2023-05-06T21:11:13.448Z,98659.09
2023-05-06T21:13:40.672Z,98671.78
2023-05-06T21:16:07.095Z,98656.00
2023-05-06T21:18:33.503Z,98671.22
2023-05-06T21:20:59.989Z,98668.53
2023-05-06T21:23:26.510Z,98670.00
2023-05-06T21:25:52.947Z,98670.22
2023-05-06T21:28:19.317Z,98673.75
2023-05-06T21:30:45.767Z,98672.16
2023-05-06T21:33:12.191Z,98667.25
2023-05-06T21:35:38.662Z,98676.91
2023-05-06T21:38:05.037Z,98678.81
2023-05-06T21:40:31.426Z,98684.41
2023-05-06T21:42:57.820Z,98685.44
2023-05-06T21:45:24.220Z,98687.47
2023-05-06T21:47:50.622Z,98684.47
2023-05-06T21:50:17.181Z,98681.31
2023-05-06T21:52:43.594Z,98689.97
2023-05-06T21:55:10.368Z,98687.09
2023-05-06T21:57:37.081Z,98690.44
2023-05-06T22:00:11.971Z,98692.75
2023-05-06T22:02:39.801Z,98693.78
2023-05-06T22:05:06.653Z,98698.31
2023-05-06T22:07:33.089Z,98695.03
2023-05-06T22:09:59.487Z,98697.91
2023-05-06T22:12:26.226Z,98692.09
2023-05-06T22:14:52.902Z,98692.00
2023-05-06T22:17:19.429Z,98691.63
2023-05-06T22:19:46.516Z,98699.78
2023-05-06T22:22:13.233Z,98691.69
2023-05-06T22:24:39.661Z,98688.09
2023-05-06T22:27:06.111Z,98691.28
2023-05-06T22:29:34.940Z,98695.31
2023-05-06T22:32:01.495Z,98691.88
2023-05-06T22:34:27.902Z,98700.66
2023-05-06T22:36:54.297Z,98694.72
2023-05-06T22:39:20.675Z,98693.84
2023-05-06T22:41:49.244Z,98692.81
2023-05-06T22:44:15.753Z,98691.41
2023-05-06T22:46:42.137Z,98690.00
2023-05-06T22:49:08.580Z,98694.34
2023-05-06T22:51:35.273Z,98688.72
2023-05-06T22:54:01.653Z,98688.03
2023-05-06T22:56:28.033Z,98703.19
2023-05-06T22:58:54.469Z,98689.59
2023-05-06T23:01:20.937Z,98677.78
2023-05-06T23:03:47.431Z,98692.84
2023-05-06T23:06:13.843Z,98703.09
2023-05-06T23:08:40.187Z,98694.16
2023-05-06T23:11:06.581Z,98695.59
2023-05-06T23:13:36.016Z,98701.03
2023-05-06T23:16:02.598Z,98700.88
2023-05-06T23:18:28.962Z,98698.13
2023-05-06T23:20:55.334Z,98697.31
2023-05-06T23:23:21.705Z,98690.00
2023-05-06T23:25:48.073Z,98691.66
2023-05-06T23:28:14.434Z,98698.22
2023-05-06T23:30:40.886Z,98697.16
2023-05-06T23:33:07.739Z,98702.06
2023-05-06T23:35:34.177Z,98701.03
2023-05-06T23:38:00.559Z,98709.50
2023-05-06T23:40:26.966Z,98699.75
2023-05-06T23:42:53.315Z,98697.16
2023-05-06T23:45:20.349Z,98698.88
2023-05-06T23:47:46.767Z,98689.66
2023-05-06T23:50:13.352Z,98693.09
2023-05-06T23:52:40.085Z,98703.03
2023-05-06T23:55:06.830Z,98700.75
2023-05-06T23:57:33.256Z,98709.09
2023-05-06T23:59:59.646Z,98714.25
